Time;durP1;ratioP1;P1;durP2;ratioP2;P2;SDS_P1;SDS_P2;PMS_P1;PMS_P2;Temp;Humidity;BMP_temperature;BMP_pressure;BME280_temperature;BME280_humidity;BME280_pressure;Samples;Min_cycle;Max_cycle;Signal;HPM_P1;HPM_P2
2023/08/08 00:00:42;;;;;;;14.63;2.97;;;;;;;16.17;97.81;101502.81;6102492;19;20022;-70
2023/08/08 00:02:47;;;;;;;8.23;3.10;;;;;;;16.14;98.19;101492.38;6101458;19;20364;-69
2023/08/08 00:04:56;;;;;;;7.85;2.63;;;;;;;16.15;97.91;101498.53;6105470;19;20010;-69
2023/08/08 00:07:03;;;;;;;7.78;2.85;;;;;;;16.15;98.42;101498.53;6103665;19;20026;-71
2023/08/08 00:09:12;;;;;;;7.53;2.92;;;;;;;16.16;98.15;101506.41;6099366;19;20014;-68
2023/08/08 00:11:17;;;;;;;8.32;2.85;;;;;;;16.12;98.11;101507.50;6098392;19;20063;-70
2023/08/08 00:13:22;;;;;;;9.38;3.15;;;;;;;16.07;98.68;101500.75;6105430;19;20558;-70
2023/08/08 00:15:29;;;;;;;7.75;2.83;;;;;;;16.11;98.45;101495.19;6104545;19;20047;-69
2023/08/08 00:17:34;;;;;;;15.18;3.38;;;;;;;16.08;98.91;101505.94;6081439;19;20097;-70
2023/08/08 00:19:39;;;;;;;9.68;3.20;;;;;;;16.10;98.50;101500.56;6103501;19;20007;-71
2023/08/08 00:21:45;;;;;;;10.85;3.13;;;;;;;16.09;98.61;101509.44;6104931;19;20002;-71
2023/08/08 00:23:52;;;;;;;9.70;3.47;;;;;;;16.05;98.65;101498.16;6104421;19;20010;-71
2023/08/08 00:26:00;;;;;;;8.32;3.20;;;;;;;16.00;98.84;101498.41;6048867;19;20986;-70
2023/08/08 00:28:05;;;;;;;7.25;2.67;;;;;;;15.97;99.08;101498.56;6104613;19;20011;-70
2023/08/08 00:30:12;;;;;;;12.77;3.63;;;;;;;15.97;98.81;101497.72;6098656;19;20479;-70
2023/08/08 00:32:20;;;;;;;8.52;3.20;;;;;;;15.97;98.34;101497.72;6099392;19;20033;-70
2023/08/08 00:34:25;;;;;;;15.48;3.15;;;;;;;15.94;97.93;101505.84;6096875;19;20002;-71
2023/08/08 00:36:30;;;;;;;11.25;3.35;;;;;;;15.87;97.55;101501.78;6100153;19;20436;-70
2023/08/08 00:38:35;;;;;;;9.55;3.55;;;;;;;15.86;97.58;101500.06;6103612;19;20655;-71
2023/08/08 00:40:40;;;;;;;6.78;3.08;;;;;;;15.81;96.61;101495.00;6101379;19;20076;-70
2023/08/08 00:42:47;;;;;;;7.90;3.17;;;;;;;15.74;96.41;101501.56;6104030;19;20026;-70
2023/08/08 00:44:53;;;;;;;11.05;3.90;;;;;;;15.71;94.31;101499.91;6102857;19;20038;-71
2023/08/08 00:46:58;;;;;;;8.55;2.55;;;;;;;15.71;92.86;101497.28;6098967;19;20040;-71
2023/08/08 00:49:03;;;;;;;5.78;2.72;;;;;;;15.78;90.68;101497.81;6103736;19;20633;-71
2023/08/08 00:51:08;;;;;;;5.45;2.90;;;;;;;15.77;88.57;101486.38;6103743;19;20101;-72
2023/08/08 00:53:14;;;;;;;8.77;2.70;;;;;;;15.68;88.52;101489.44;6099885;19;20558;-71
2023/08/08 00:55:19;;;;;;;5.25;2.63;;;;;;;15.65;88.11;101486.97;6103692;19;20014;-71
2023/08/08 00:57:21;;;;;;;3.85;2.13;;;;;;;15.62;87.68;101486.28;6102381;19;20042;-71
2023/08/08 00:59:30;;;;;;;4.07;2.50;;;;;;;15.54;87.21;101487.50;6101171;19;20086;-71
2023/08/08 01:01:32;;;;;;;6.05;2.60;;;;;;;15.66;85.78;101485.16;6105635;19;20007;-70
2023/08/08 01:03:38;;;;;;;5.93;2.33;;;;;;;15.62;84.98;101481.81;6099080;19;20138;-70
2023/08/08 01:05:53;;;;;;;5.03;2.75;;;;;;;15.59;85.19;101485.50;6101731;19;20010;-70
2023/08/08 01:08:05;;;;;;;5.15;2.50;;;;;;;15.60;84.85;101491.63;6102161;19;20006;-70
2023/08/08 01:10:12;;;;;;;10.27;2.67;;;;;;;15.56;85.21;101493.59;6100270;19;20459;-70
2023/08/08 01:12:15;;;;;;;5.53;2.55;;;;;;;15.59;84.49;101490.78;6102720;19;20007;-70
2023/08/08 01:14:24;;;;;;;7.70;2.58;;;;;;;15.59;84.65;101490.78;6092579;19;20010;-69
2023/08/08 01:16:34;;;;;;;4.10;2.35;;;;;;;15.57;84.93;101497.94;6103137;19;20023;-70
2023/08/08 01:18:40;;;;;;;6.53;2.63;;;;;;;15.56;84.41;101490.94;6104548;19;20052;-69
2023/08/08 01:20:46;;;;;;;4.03;2.40;;;;;;;15.62;83.50;101488.94;6096586;19;20086;-69
2023/08/08 01:22:58;;;;;;;6.32;2.70;;;;;;;15.61;83.49;101484.53;6103133;19;20014;-70
2023/08/08 01:25:08;;;;;;;3.30;2.23;;;;;;;15.61;83.76;101481.91;6102200;19;20003;-70
2023/08/08 01:27:13;;;;;;;4.43;2.92;;;;;;;15.65;82.78;101489.63;6099488;19;20007;-70
2023/08/08 01:29:19;;;;;;;4.90;2.63;;;;;;;15.75;81.99;101498.00;6102264;19;20007;-70
2023/08/08 01:31:24;;;;;;;7.65;2.45;;;;;;;15.69;82.63;101493.88;6098518;19;20010;-70
2023/08/08 01:33:29;;;;;;;4.88;2.60;;;;;;;15.70;81.56;101487.63;6104735;19;20119;-70
2023/08/08 01:35:40;;;;;;;4.13;2.38;;;;;;;15.68;81.22;101491.25;6100530;19;20042;-70
2023/08/08 01:37:51;;;;;;;6.38;2.67;;;;;;;15.62;81.46;101486.28;6099090;19;20010;-70
2023/08/08 01:39:58;;;;;;;4.43;2.28;;;;;;;15.63;80.64;101483.53;6102470;19;20011;-69
2023/08/08 01:42:08;;;;;;;4.70;2.25;;;;;;;15.62;80.75;101479.19;6103001;19;20616;-70
2023/08/08 01:44:14;;;;;;;7.40;2.92;;;;;;;15.60;80.28;101481.03;6102947;19;20019;-70
2023/08/08 01:46:20;;;;;;;8.32;2.67;;;;;;;15.54;80.00;101482.22;6102446;19;20416;-70
2023/08/08 01:48:25;;;;;;;8.23;2.45;;;;;;;15.57;79.69;101486.50;6095614;19;20006;-70
2023/08/08 01:50:30;;;;;;;4.78;2.50;;;;;;;15.49;79.83;101483.38;6100492;19;20024;-70
2023/08/08 01:52:35;;;;;;;4.63;2.40;;;;;;;15.40;80.25;101481.19;6099683;19;20010;-69
2023/08/08 01:54:42;;;;;;;7.28;2.63;;;;;;;15.37;80.36;101474.25;6097612;19;20030;-69
2023/08/08 01:56:47;;;;;;;6.35;2.50;;;;;;;15.34;80.51;101477.06;6098679;19;20076;-70
2023/08/08 01:58:54;;;;;;;4.38;2.22;;;;;;;15.32;80.19;101465.69;6100897;19;20007;-70
2023/08/08 02:00:59;;;;;;;4.32;2.17;;;;;;;15.29;80.74;101469.34;6100850;19;21069;-70
2023/08/08 02:03:05;;;;;;;5.28;3.15;;;;;;;15.28;80.92;101469.44;6103236;19;20532;-71
2023/08/08 02:05:10;;;;;;;4.93;2.22;;;;;;;15.29;79.96;101471.13;6100382;19;20117;-69
2023/08/08 02:07:16;;;;;;;3.08;2.22;;;;;;;15.45;77.70;101465.94;6101263;19;20347;-70
2023/08/08 02:09:21;;;;;;;3.20;2.03;;;;;;;15.49;76.80;101467.50;6103229;19;20082;-70
2023/08/08 02:11:26;;;;;;;4.07;2.15;;;;;;;15.35;77.50;101461.09;6096844;19;20035;-70
2023/08/08 02:13:34;;;;;;;6.22;2.50;;;;;;;15.24;78.37;101459.91;6099592;19;20382;-70
2023/08/08 02:15:42;;;;;;;7.25;2.22;;;;;;;15.20;78.79;101467.16;6102627;19;20667;-70
2023/08/08 02:17:50;;;;;;;5.82;2.13;;;;;;;15.12;78.43;101456.09;6100123;19;20482;-70
2023/08/08 02:19:55;;;;;;;5.95;2.33;;;;;;;15.10;78.37;101453.53;6100918;19;20393;-70
2023/08/08 02:22:00;;;;;;;4.10;2.30;;;;;;;15.09;78.25;101462.41;6101037;19;20687;-71
2023/08/08 02:24:07;;;;;;;3.75;2.10;;;;;;;15.09;78.47;101458.91;6103022;19;20260;-70
2023/08/08 02:26:12;;;;;;;6.43;2.05;;;;;;;15.15;77.95;101464.75;6102224;19;19999;-70
2023/08/08 02:28:17;;;;;;;7.03;2.17;;;;;;;15.18;77.14;101468.19;6097511;19;20006;-72
2023/08/08 02:30:22;;;;;;;4.53;2.03;;;;;;;15.19;77.33;101470.72;6094804;19;20123;-70
2023/08/08 02:32:30;;;;;;;4.57;2.10;;;;;;;15.19;76.67;101462.78;6097476;19;20052;-70
2023/08/08 02:34:35;;;;;;;5.03;2.40;;;;;;;15.21;77.13;101463.56;6100184;19;20042;-70
2023/08/08 02:36:40;;;;;;;5.45;2.00;;;;;;;15.18;77.21;101457.59;6102653;19;20571;-70
2023/08/08 02:38:46;;;;;;;4.13;1.85;;;;;;;15.10;77.69;101460.63;6099113;19;20042;-70
2023/08/08 02:40:48;;;;;;;2.17;1.77;;;;;;;15.05;77.63;101462.63;6101317;19;20427;-70
2023/08/08 02:42:53;;;;;;;2.78;2.22;;;;;;;15.09;77.59;101453.63;6103637;19;20077;-71
2023/08/08 02:44:59;;;;;;;6.72;1.90;;;;;;;15.03;77.78;101454.75;6097319;19;20006;-71
2023/08/08 02:47:04;;;;;;;7.13;2.38;;;;;;;15.02;76.86;101449.56;6099905;19;20451;-71
2023/08/08 02:49:12;;;;;;;3.47;1.60;;;;;;;15.00;76.41;101441.69;6098880;19;20014;-71
2023/08/08 02:51:17;;;;;;;3.25;1.60;;;;;;;14.91;77.34;101439.50;6099390;19;20007;-71
2023/08/08 02:53:23;;;;;;;3.75;1.60;;;;;;;14.84;76.84;101444.22;6099402;19;20019;-70
2023/08/08 02:55:28;;;;;;;5.05;2.00;;;;;;;14.86;75.65;101447.66;6108060;19;20070;-70
2023/08/08 02:57:33;;;;;;;3.25;1.67;;;;;;;14.78;76.26;101449.81;6105932;19;20010;-71
2023/08/08 02:59:38;;;;;;;4.43;2.03;;;;;;;14.74;76.53;101436.81;6108238;19;20812;-70
2023/08/08 03:01:41;;;;;;;2.65;1.58;;;;;;;14.80;74.97;101441.81;6102241;19;20456;-70
2023/08/08 03:03:46;;;;;;;;;;;;;;;14.80;74.18;101441.81;6107670;19;20014;-70
2023/08/08 03:05:51;;;;;;;3.85;1.67;;;;;;;14.85;74.07;101445.94;6106879;19;19907;-72
2023/08/08 03:07:56;;;;;;;4.72;1.75;;;;;;;14.80;74.00;101441.81;6107888;19;20023;-72
2023/08/08 03:10:04;;;;;;;2.60;1.60;;;;;;;14.81;74.09;101443.53;6106751;19;20015;-72
2023/08/08 03:12:11;;;;;;;6.75;1.90;;;;;;;14.75;74.18;101439.38;6099153;19;20029;-71
2023/08/08 03:14:16;;;;;;;6.15;2.03;;;;;;;14.78;74.22;101443.69;6105111;19;20009;-71
2023/08/08 03:16:21;;;;;;;4.10;1.90;;;;;;;14.80;74.06;101444.47;6103100;19;20007;-71
2023/08/08 03:18:27;;;;;;;4.38;1.90;;;;;;;14.77;74.84;101444.59;6102606;19;20022;-71
2023/08/08 03:20:32;;;;;;;2.70;1.70;;;;;;;14.71;74.63;101443.09;6108543;19;20036;-70
2023/08/08 03:22:40;;;;;;;4.88;1.80;;;;;;;14.70;74.76;101444.88;6105059;19;20007;-69
2023/08/08 03:24:42;;;;;;;4.97;2.20;;;;;;;14.70;75.08;101444.88;6103621;19;20415;-70
2023/08/08 03:26:53;;;;;;;2.90;1.67;;;;;;;14.71;75.36;101437.81;6105766;19;20586;-72
2023/08/08 03:28:58;;;;;;;5.43;1.77;;;;;;;14.67;74.97;101441.56;6104733;19;20562;-70
2023/08/08 03:31:02;;;;;;;5.50;1.90;;;;;;;14.66;75.48;101439.81;6106620;19;20021;-71
2023/08/08 03:33:07;;;;;;;1.75;1.60;;;;;;;14.66;75.28;101435.38;6103068;19;20492;-72
2023/08/08 03:35:14;;;;;;;4.32;1.88;;;;;;;14.71;74.96;101440.44;6103025;19;20461;-70
2023/08/08 03:37:19;;;;;;;2.72;1.60;;;;;;;14.85;73.46;101439.78;6101882;19;20014;-71
2023/08/08 03:39:28;;;;;;;5.63;1.90;;;;;;;14.88;73.11;101434.38;6103359;19;20022;-70
2023/08/08 03:41:33;;;;;;;2.13;1.50;;;;;;;15.03;71.78;101433.56;6104753;19;20468;-70
2023/08/08 03:43:38;;;;;;;3.35;1.65;;;;;;;15.04;71.70;101423.88;6105536;19;20470;-70
2023/08/08 03:45:43;;;;;;;3.33;1.75;;;;;;;15.08;71.22;101430.72;6106410;19;20014;-70
2023/08/08 03:47:48;;;;;;;4.28;1.77;;;;;;;15.04;71.68;101430.00;6105692;19;20027;-70
2023/08/08 03:49:55;;;;;;;2.35;1.50;;;;;;;14.98;72.13;101429.44;6102627;19;20021;-72
2023/08/08 03:51:57;;;;;;;2.90;1.60;;;;;;;14.92;73.40;101420.88;6103654;19;20015;-71
2023/08/08 03:54:02;;;;;;;4.10;1.85;;;;;;;14.87;73.34;101420.25;6100332;19;20078;-71
2023/08/08 03:56:10;;;;;;;3.03;1.67;;;;;;;14.86;73.98;101415.03;6103206;19;20344;-70
2023/08/08 03:58:15;;;;;;;3.50;1.70;;;;;;;14.84;75.07;101415.09;6106098;19;20020;-70
2023/08/08 04:00:23;;;;;;;6.32;2.38;;;;;;;14.79;75.17;101418.91;6103253;19;20475;-70
2023/08/08 04:02:28;;;;;;;2.80;1.60;;;;;;;14.73;75.83;101414.78;6100080;19;20546;-70
2023/08/08 04:04:34;;;;;;;4.45;1.73;;;;;;;14.74;75.79;101415.63;6103550;19;20352;-72
2023/08/08 04:06:39;;;;;;;3.45;1.80;;;;;;;14.70;75.63;101413.16;6104265;19;20347;-70
2023/08/08 04:08:44;;;;;;;5.15;1.70;;;;;;;14.70;75.54;101410.50;6098767;19;20614;-69
2023/08/08 04:10:50;;;;;;;5.47;2.13;;;;;;;14.64;75.85;101418.75;6099393;19;20018;-69
2023/08/08 04:12:58;;;;;;;4.88;1.73;;;;;;;14.59;75.84;101417.25;6100783;19;20014;-70
2023/08/08 04:15:04;;;;;;;3.42;1.52;;;;;;;14.61;75.33;101421.53;6104810;19;20244;-71
2023/08/08 04:17:09;;;;;;;5.18;1.80;;;;;;;14.56;76.00;101420.03;6101995;19;20479;-69
2023/08/08 04:19:15;;;;;;;6.75;1.88;;;;;;;14.54;75.49;101412.19;6101682;19;20427;-69
2023/08/08 04:21:20;;;;;;;3.05;1.55;;;;;;;14.48;75.78;101415.94;6104792;19;20501;-71
2023/08/08 04:23:25;;;;;;;5.55;1.75;;;;;;;14.39;76.06;101416.38;6108425;19;20430;-71
2023/08/08 04:25:31;;;;;;;4.10;2.20;;;;;;;14.40;75.69;101412.81;6108239;19;20351;-70
2023/08/08 04:27:36;;;;;;;5.15;1.92;;;;;;;14.33;75.85;101416.66;6106641;19;20017;-70
2023/08/08 04:29:46;;;;;;;3.65;1.98;;;;;;;14.30;76.28;101419.47;6107006;19;20388;-70
2023/08/08 04:31:55;;;;;;;3.42;1.60;;;;;;;14.26;76.46;101416.06;6105338;19;20058;-71
2023/08/08 04:34:00;;;;;;;3.55;1.70;;;;;;;14.18;77.10;101420.88;6102011;19;20010;-72
2023/08/08 04:36:08;;;;;;;5.75;1.70;;;;;;;14.26;76.50;101423.16;6105445;19;20018;-70
2023/08/08 04:38:16;;;;;;;2.70;1.83;;;;;;;14.16;77.30;101420.06;6102997;19;20466;-72
2023/08/08 04:40:22;;;;;;;3.22;1.60;;;;;;;14.21;76.85;101419.88;6103334;19;20002;-69
2023/08/08 04:42:25;;;;;;;2.78;1.80;;;;;;;14.19;76.92;101419.06;6107554;19;20007;-71
2023/08/08 04:44:30;;;;;;;3.05;1.80;;;;;;;14.19;77.30;101419.06;6105954;19;20006;-71
2023/08/08 04:46:38;;;;;;;2.65;1.40;;;;;;;14.35;76.15;101429.78;6107692;19;20006;-70
2023/08/08 04:48:46;;;;;;;4.22;2.03;;;;;;;14.35;76.42;101427.16;6105290;19;20491;-70
2023/08/08 04:50:51;;;;;;;3.97;1.63;;;;;;;14.39;76.12;101434.88;6102053;19;20015;-70
2023/08/08 04:52:56;;;;;;;3.15;1.40;;;;;;;14.45;76.27;101431.94;6101023;19;20021;-70
2023/08/08 04:55:01;;;;;;;3.25;1.85;;;;;;;14.54;75.81;101424.56;6106871;19;20155;-70
2023/08/08 04:57:07;;;;;;;3.70;1.73;;;;;;;14.53;76.22;101417.53;6105049;19;20018;-70
2023/08/08 04:59:13;;;;;;;2.15;1.45;;;;;;;14.54;76.67;101424.56;6107885;19;20475;-70
2023/08/08 05:01:20;;;;;;;4.97;1.73;;;;;;;14.57;76.65;101429.69;6104127;19;20476;-70
2023/08/08 05:03:28;;;;;;;3.72;1.60;;;;;;;14.64;76.64;101433.72;6103848;19;20018;-70
2023/08/08 05:05:30;;;;;;;2.97;1.30;;;;;;;14.70;76.32;101428.16;6106765;19;20020;-70
2023/08/08 05:07:37;;;;;;;3.17;1.58;;;;;;;14.71;76.56;101435.16;6101771;19;20010;-70
2023/08/08 05:09:43;;;;;;;4.80;1.73;;;;;;;14.79;76.89;101434.78;6102785;19;20010;-71
2023/08/08 05:11:48;;;;;;;4.32;1.55;;;;;;;14.81;77.08;101431.13;6100340;19;20013;-70
2023/08/08 05:13:56;;;;;;;5.32;1.65;;;;;;;14.91;77.31;101431.56;6103837;19;20552;-71
2023/08/08 05:16:01;;;;;;;3.83;1.48;;;;;;;15.00;77.05;101435.53;6104304;19;20015;-72
2023/08/08 05:18:08;;;;;;;1.58;1.30;;;;;;;15.03;77.44;101430.94;6100668;19;20007;-71
2023/08/08 05:20:16;;;;;;;3.83;1.67;;;;;;;15.07;77.41;101419.28;6100145;19;20007;-70
2023/08/08 05:22:24;;;;;;;3.05;1.45;;;;;;;15.17;76.36;101429.41;6095346;19;20013;-70
2023/08/08 05:24:30;;;;;;;4.88;1.73;;;;;;;15.21;76.97;101428.31;6097771;19;20019;-70
2023/08/08 05:26:35;;;;;;;3.05;1.42;;;;;;;15.37;77.15;101435.38;6104439;19;20423;-72
2023/08/08 05:28:40;;;;;;;5.18;1.75;;;;;;;15.47;76.13;101430.47;6104106;19;21817;-70
2023/08/08 05:30:45;;;;;;;3.67;1.30;;;;;;;15.57;74.62;101433.53;6100916;19;20531;-70
2023/08/08 05:32:50;;;;;;;2.83;1.52;;;;;;;15.53;74.13;101438.13;6104169;19;20102;-70
2023/08/08 05:34:53;;;;;;;2.55;1.40;;;;;;;15.70;73.74;101439.91;6100850;19;20011;-70
2023/08/08 05:37:01;;;;;;;4.10;1.52;;;;;;;15.51;74.54;101444.44;6099897;19;20006;-71
2023/08/08 05:39:20;;;;;;;4.90;1.60;;;;;;;15.32;73.33;101433.91;6098205;19;20186;-70
2023/08/08 05:41:25;;;;;;;5.15;1.70;;;;;;;15.28;72.84;101435.00;6101825;19;20010;-72
2023/08/08 05:43:30;;;;;;;3.20;1.17;;;;;;;15.64;71.92;101445.53;6102454;19;20413;-73
2023/08/08 05:45:35;;;;;;;2.67;1.30;;;;;;;15.87;71.05;101443.47;6101022;19;20007;-70
2023/08/08 05:47:41;;;;;;;3.58;1.30;;;;;;;15.96;70.19;101448.28;6099129;19;20014;-70
2023/08/08 05:49:46;;;;;;;4.45;1.30;;;;;;;16.06;68.70;101440.69;6100317;19;20017;-71
2023/08/08 05:51:56;;;;;;;2.47;1.05;;;;;;;16.09;67.85;101437.88;6101683;19;20009;-71
2023/08/08 05:54:04;;;;;;;2.45;1.25;;;;;;;16.21;66.86;101445.16;6098094;19;20018;-70
2023/08/08 05:56:09;;;;;;;2.60;1.30;;;;;;;16.40;66.55;101439.69;6094155;19;20044;-70
2023/08/08 05:58:17;;;;;;;5.38;1.40;;;;;;;16.41;66.28;101446.75;6096939;19;20462;-70
2023/08/08 06:00:23;;;;;;;4.72;1.35;;;;;;;16.58;66.18;101445.78;6093289;19;20039;-70
2023/08/08 06:02:28;;;;;;;2.97;1.52;;;;;;;16.87;66.05;101446.81;6098357;19;20034;-70
2023/08/08 06:04:33;;;;;;;4.63;1.30;;;;;;;16.90;65.48;101443.97;6098473;19;20003;-71
2023/08/08 06:06:48;;;;;;;4.15;1.98;;;;;;;17.02;66.20;101440.63;6100039;19;20346;-70
2023/08/08 06:08:54;;;;;;;3.55;1.27;;;;;;;17.32;65.92;101450.41;6099848;19;20070;-70
2023/08/08 06:11:05;;;;;;;3.00;1.38;;;;;;;17.15;64.98;101447.91;6100058;19;20007;-69
2023/08/08 06:13:10;;;;;;;1.70;1.08;;;;;;;17.14;64.31;101447.03;6094794;19;20015;-70
2023/08/08 06:15:15;;;;;;;2.38;1.15;;;;;;;17.53;64.53;101454.44;6101012;19;20039;-70
2023/08/08 06:17:20;;;;;;;2.15;1.30;;;;;;;17.44;64.44;101454.16;6100403;19;20412;-70
2023/08/08 06:19:25;;;;;;;2.47;1.15;;;;;;;17.64;64.27;101447.63;6100606;19;20023;-71
2023/08/08 06:21:30;;;;;;;2.38;1.08;;;;;;;17.24;64.65;101452.66;6101448;19;20006;-71
2023/08/08 06:23:36;;;;;;;2.15;0.95;;;;;;;17.55;64.54;101457.84;6100832;19;20014;-71
2023/08/08 06:25:47;;;;;;;3.45;1.42;;;;;;;17.86;63.47;101453.38;6099376;19;20032;-71
2023/08/08 06:27:55;;;;;;;5.32;1.30;;;;;;;17.58;63.05;101448.00;6093493;19;20015;-70
2023/08/08 06:30:02;;;;;;;2.30;1.38;;;;;;;17.55;63.72;101449.88;6094720;19;20034;-70
2023/08/08 06:32:11;;;;;;;2.53;1.30;;;;;;;17.69;63.57;101450.84;6094695;19;20003;-72
2023/08/08 06:34:16;;;;;;;3.13;1.27;;;;;;;18.07;62.67;101458.34;6098454;19;20467;-70
2023/08/08 06:36:24;;;;;;;3.20;1.20;;;;;;;18.27;62.46;101444.63;6096466;19;20007;-71
2023/08/08 06:38:33;;;;;;;2.33;1.05;;;;;;;18.55;61.66;101448.19;6101860;19;20013;-70
2023/08/08 06:40:40;;;;;;;1.70;1.27;;;;;;;18.46;61.09;101443.44;6097444;19;20570;-70
2023/08/08 06:42:43;;;;;;;2.92;1.20;;;;;;;18.55;60.67;101442.88;6098862;19;20078;-70
2023/08/08 06:44:50;;;;;;;2.72;1.27;;;;;;;18.36;60.17;101444.06;6101047;19;20023;-70
2023/08/08 06:46:58;;;;;;;3.22;1.35;;;;;;;18.14;60.21;101438.34;6098898;19;19999;-71
2023/08/08 06:49:06;;;;;;;2.00;1.23;;;;;;;18.56;60.35;101444.56;6101789;19;20010;-70
2023/08/08 06:51:12;;;;;;;0.90;0.90;;;;;;;18.80;59.23;101440.38;6099535;19;20011;-71
2023/08/08 06:53:15;;;;;;;2.72;1.33;;;;;;;18.51;59.93;101447.53;6096520;19;20010;-72
2023/08/08 06:55:20;;;;;;;4.05;1.30;;;;;;;18.66;59.24;101443.03;6098009;19;20038;-72
2023/08/08 06:57:25;;;;;;;3.42;1.30;;;;;;;18.53;59.63;101445.63;6099193;19;20014;-72
2023/08/08 06:59:31;;;;;;;1.83;1.13;;;;;;;17.91;59.99;101440.66;6098265;19;20014;-70
2023/08/08 07:01:39;;;;;;;2.10;1.13;;;;;;;18.05;59.56;101444.28;6094174;19;20460;-72
2023/08/08 07:03:44;;;;;;;1.92;1.20;;;;;;;18.51;59.08;101447.53;6095502;19;20010;-71
2023/08/08 07:05:51;;;;;;;1.88;1.23;;;;;;;18.24;59.92;101444.81;6097076;19;20011;-71
2023/08/08 07:07:59;;;;;;;2.30;1.05;;;;;;;17.75;62.43;101453.16;6098848;19;20507;-72
2023/08/08 07:10:06;;;;;;;2.80;1.15;;;;;;;18.26;61.65;101450.91;6094759;19;20011;-70
2023/08/08 07:12:12;;;;;;;2.47;1.42;;;;;;;18.71;59.78;101448.91;6098551;19;20007;-71
2023/08/08 07:14:17;;;;;;;2.90;1.20;;;;;;;18.87;58.54;101448.78;6098245;19;20007;-72
2023/08/08 07:16:24;;;;;;;3.05;1.38;;;;;;;18.88;59.13;101445.19;6093917;19;20014;-71
2023/08/08 07:18:32;;;;;;;4.13;1.20;;;;;;;19.34;58.09;101454.56;6096695;19;20002;-70
2023/08/08 07:20:39;;;;;;;0.90;0.90;;;;;;;19.41;57.53;101455.88;6095282;19;20102;-71
2023/08/08 07:22:44;;;;;;;5.78;1.38;;;;;;;19.00;57.68;101449.69;6096672;19;20011;-71
2023/08/08 07:24:49;;;;;;;2.42;1.30;;;;;;;19.20;56.88;101440.38;6093571;19;20952;-70
2023/08/08 07:26:54;;;;;;;1.75;1.20;;;;;;;19.36;56.99;101442.00;6097128;19;20074;-71
2023/08/08 07:29:00;;;;;;;3.47;1.27;;;;;;;19.46;56.27;101443.09;6092476;19;20024;-71
2023/08/08 07:31:05;;;;;;;1.33;1.00;;;;;;;19.57;57.08;101437.88;6098217;19;20019;-71
2023/08/08 07:33:11;;;;;;;1.65;0.90;;;;;;;19.91;56.61;101439.06;6097072;19;20003;-69
2023/08/08 07:35:19;;;;;;;3.50;1.30;;;;;;;20.18;55.07;101433.59;6102971;19;20486;-71
2023/08/08 07:37:24;;;;;;;3.28;1.00;;;;;;;19.90;55.19;101432.00;6099432;19;20038;-71
2023/08/08 07:39:29;;;;;;;1.30;1.15;;;;;;;19.49;57.50;101441.06;6096945;19;20011;-70
2023/08/08 07:41:32;;;;;;;1.50;1.13;;;;;;;19.81;56.49;101430.00;6101404;19;20092;-71
2023/08/08 07:43:38;;;;;;;1.55;1.30;;;;;;;19.99;56.68;101435.88;6100600;19;20015;-72
2023/08/08 07:45:44;;;;;;;1.42;1.05;;;;;;;20.44;54.70;101427.34;6092216;19;20042;-71
2023/08/08 07:47:49;;;;;;;2.53;1.38;;;;;;;19.60;56.40;101432.31;6098722;19;20451;-71
2023/08/08 07:49:54;;;;;;;1.58;1.25;;;;;;;19.91;55.48;101424.88;6095521;19;20265;-70
2023/08/08 07:52:02;;;;;;;3.00;1.20;;;;;;;20.26;55.98;101426.84;6097768;19;20006;-69
2023/08/08 07:54:10;;;;;;;1.50;1.10;;;;;;;20.10;55.87;101429.78;6100521;19;20021;-69
2023/08/08 07:56:15;;;;;;;2.47;1.10;;;;;;;19.89;54.82;101432.13;6095144;19;20021;-70
2023/08/08 07:58:23;;;;;;;2.22;0.98;;;;;;;20.29;55.38;101432.81;6104621;19;20039;-73
2023/08/08 08:00:29;;;;;;;4.95;1.73;;;;;;;20.27;55.88;101436.56;6102549;19;20013;-72
2023/08/08 08:02:34;;;;;;;2.13;1.15;;;;;;;19.86;56.79;101433.22;6102764;19;20390;-71
2023/08/08 08:04:39;;;;;;;2.60;1.30;;;;;;;19.15;57.31;101437.16;6106452;19;20042;-71
2023/08/08 08:06:44;;;;;;;1.52;0.98;;;;;;;19.16;57.43;101432.69;6099511;19;20451;-72
2023/08/08 08:08:52;;;;;;;3.65;1.13;;;;;;;19.73;55.94;101433.22;6096124;19;20011;-71
2023/08/08 08:10:57;;;;;;;1.77;1.40;;;;;;;20.08;54.43;101432.53;6100106;19;20049;-71
2023/08/08 08:13:04;;;;;;;1.48;1.15;;;;;;;19.56;56.73;101435.28;6100101;19;20029;-71
2023/08/08 08:15:13;;;;;;;2.42;1.23;;;;;;;19.44;55.50;101442.34;6100928;19;20010;-70
2023/08/08 08:17:20;;;;;;;2.17;1.23;;;;;;;19.19;56.10;101433.31;6098952;19;20010;-70
2023/08/08 08:19:25;;;;;;;2.10;1.42;;;;;;;19.14;57.07;101442.59;6100522;19;20094;-69
2023/08/08 08:21:30;;;;;;;2.72;1.40;;;;;;;19.39;56.28;101433.81;6095841;19;20035;-70
2023/08/08 08:23:35;;;;;;;2.40;1.23;;;;;;;19.67;55.01;101430.13;6098744;19;20399;-71
2023/08/08 08:25:43;;;;;;;3.67;1.35;;;;;;;19.16;56.50;101428.19;6102072;19;20297;-71
2023/08/08 08:27:48;;;;;;;3.60;1.40;;;;;;;20.16;54.86;101427.50;6096236;19;20781;-71
2023/08/08 08:29:53;;;;;;;1.98;1.50;;;;;;;20.32;54.72;101424.56;6105324;19;20344;-71
2023/08/08 08:32:01;;;;;;;2.85;1.73;;;;;;;21.13;54.15;101427.59;6099123;19;20661;-72
2023/08/08 08:34:07;;;;;;;3.13;1.50;;;;;;;20.64;50.76;101436.59;6098150;19;20719;-72
2023/08/08 08:36:12;;;;;;;2.97;1.40;;;;;;;20.91;50.54;101425.69;6094391;19;20669;-72
2023/08/08 08:38:15;;;;;;;2.17;1.10;;;;;;;21.09;49.30;101423.44;6103333;19;20014;-72
2023/08/08 08:40:20;;;;;;;1.60;1.20;;;;;;;20.77;48.99;101426.69;6102724;19;20011;-71
2023/08/08 08:42:30;;;;;;;1.95;1.15;;;;;;;20.93;47.74;101424.63;6095279;19;20014;-70
2023/08/08 08:44:35;;;;;;;1.85;1.10;;;;;;;21.14;46.55;101429.28;6099952;19;20014;-70
2023/08/08 08:46:42;;;;;;;2.78;1.30;;;;;;;20.47;47.25;101421.78;6101987;19;20486;-69
2023/08/08 08:48:51;;;;;;;1.48;0.95;;;;;;;20.93;48.71;101435.31;6100982;19;20010;-70
2023/08/08 08:50:57;;;;;;;1.77;1.17;;;;;;;20.75;48.06;101428.66;6099941;19;20566;-70
2023/08/08 08:53:04;;;;;;;1.20;1.20;;;;;;;20.58;48.85;101444.06;6064293;19;20014;-70
2023/08/08 08:55:11;;;;;;;2.00;1.50;;;;;;;20.76;48.37;101438.34;6099809;19;20006;-70
2023/08/08 08:57:16;;;;;;;2.72;1.40;;;;;;;20.24;51.37;101434.97;6099889;19;20010;-72
2023/08/08 08:59:27;;;;;;;2.50;1.55;;;;;;;19.47;51.70;101437.63;6094722;19;20011;-74
2023/08/08 09:01:34;;;;;;;;;;;;;;;19.49;52.58;101449.06;6095353;19;20451;-72
2023/08/08 09:03:39;;;;;;;2.90;1.40;;;;;;;20.26;52.78;101440.19;6095170;19;19924;-72
2023/08/08 09:05:48;;;;;;;2.53;1.50;;;;;;;20.09;52.62;101450.25;6095534;19;20027;-72
2023/08/08 09:07:53;;;;;;;2.97;1.50;;;;;;;19.60;53.99;101456.31;6098141;19;20344;-72
2023/08/08 09:09:59;;;;;;;2.65;1.52;;;;;;;19.58;51.74;101446.72;6100482;19;20662;-72
2023/08/08 09:12:07;;;;;;;3.97;1.40;;;;;;;20.03;51.94;101456.00;6094754;19;20466;-73
2023/08/08 09:14:19;;;;;;;3.97;1.60;;;;;;;20.63;51.13;101451.75;6099744;19;20087;-73
2023/08/08 09:16:29;;;;;;;2.05;1.10;;;;;;;20.34;50.78;101441.34;6093690;19;20006;-74
2023/08/08 09:18:34;;;;;;;2.13;1.00;;;;;;;20.64;48.98;101458.78;6099853;19;20423;-74
2023/08/08 09:20:40;;;;;;;3.22;1.42;;;;;;;19.88;51.24;101460.63;6096365;19;20416;-74
2023/08/08 09:22:45;;;;;;;4.05;1.23;;;;;;;20.10;51.81;101451.97;6095774;19;20487;-73
2023/08/08 09:24:51;;;;;;;3.22;1.38;;;;;;;19.67;53.36;101460.31;6098839;19;20010;-73
2023/08/08 09:26:56;;;;;;;1.40;1.20;;;;;;;19.79;54.12;101463.94;6098218;19;20015;-73
2023/08/08 09:29:01;;;;;;;2.75;1.20;;;;;;;20.23;51.84;101456.44;6090956;19;20027;-73
2023/08/08 09:31:09;;;;;;;2.42;1.30;;;;;;;20.41;52.09;101449.78;6095404;19;20006;-72
2023/08/08 09:33:16;;;;;;;3.00;1.50;;;;;;;20.67;51.98;101449.72;6094634;19;21068;-73
2023/08/08 09:35:25;;;;;;;4.20;1.60;;;;;;;19.80;53.76;101454.09;6096882;19;20007;-73
2023/08/08 09:37:31;;;;;;;3.17;1.50;;;;;;;20.00;54.15;101456.25;6096454;19;20122;-72
2023/08/08 09:39:36;;;;;;;2.05;1.05;;;;;;;19.81;54.39;101455.84;6092531;19;20023;-73
2023/08/08 09:41:44;;;;;;;2.45;1.38;;;;;;;19.91;55.12;101459.56;6099127;19;20017;-73
2023/08/08 09:43:47;;;;;;;3.72;1.50;;;;;;;20.34;54.78;101464.53;6093628;19;20031;-72
2023/08/08 09:45:54;;;;;;;2.30;1.30;;;;;;;21.01;54.19;101451.59;6092787;19;20471;-73